Time;durP1;ratioP1;P1;durP2;ratioP2;P2;SDS_P1;SDS_P2;PMS_P1;PMS_P2;Temp;Humidity;BMP_temperature;BMP_pressure;BME280_temperature;BME280_humidity;BME280_pressure;Samples;Min_cycle;Max_cycle;Signal;HPM_P1;HPM_P2
2023/09/25 00:00:30;;;;;;;15.60;9.40;;;;;;;18.31;67.65;100575.06;105604;1257;74367;-70
2023/09/25 00:02:59;;;;;;;13.50;9.70;;;;;;;18.31;68.18;100573.86;105693;1254;70175;-72
2023/09/25 00:05:26;;;;;;;20.70;10.50;;;;;;;18.28;68.52;100574.80;105592;1256;71376;-71
2023/09/25 00:07:54;;;;;;;16.50;9.40;;;;;;;18.27;68.78;100574.42;105637;1259;60427;-73
2023/09/25 00:10:21;;;;;;;21.20;9.60;;;;;;;18.33;68.56;100572.96;105463;1254;60768;-72
2023/09/25 00:12:48;;;;;;;19.80;10.10;;;;;;;18.42;68.51;100576.08;105570;1257;73404;-71
2023/09/25 00:15:15;;;;;;;18.80;9.60;;;;;;;18.46;68.65;100579.89;105437;1254;60617;-71
2023/09/25 00:17:43;;;;;;;17.20;11.10;;;;;;;18.46;68.83;100588.30;105384;1254;73021;-71
2023/09/25 00:20:14;;;;;;;24.00;10.40;;;;;;;18.45;68.83;100605.36;105526;1254;60426;-72
2023/09/25 00:22:41;;;;;;;21.40;11.30;;;;;;;18.42;68.99;100604.77;105425;1254;60480;-70
2023/09/25 00:25:08;;;;;;;16.20;11.50;;;;;;;18.39;68.99;100601.64;105446;1254;72224;-68
2023/09/25 00:27:35;;;;;;;21.10;13.20;;;;;;;18.34;69.10;100605.70;105246;1258;70665;-70
2023/09/25 00:30:05;;;;;;;21.60;13.10;;;;;;;18.29;68.96;100610.43;105315;1257;73029;-70
2023/09/25 00:32:33;;;;;;;18.00;13.70;;;;;;;18.22;69.18;100610.06;105282;1254;60539;-71
2023/09/25 00:35:01;;;;;;;20.40;13.20;;;;;;;18.14;69.35;100611.98;105174;1254;62388;-71
2023/09/25 00:37:29;;;;;;;18.30;12.00;;;;;;;18.08;69.50;100607.94;105369;1259;74378;-70
2023/09/25 00:39:56;;;;;;;17.00;12.30;;;;;;;18.15;69.59;100612.45;105323;1253;70921;-69
2023/09/25 00:42:23;;;;;;;18.40;12.00;;;;;;;18.22;69.52;100609.39;105610;1257;73226;-71
2023/09/25 00:44:50;;;;;;;16.50;13.00;;;;;;;18.20;69.54;100611.23;105387;1254;60495;-69
2023/09/25 00:47:16;;;;;;;19.80;13.80;;;;;;;18.14;69.72;100607.14;105160;1257;60618;-70
2023/09/25 00:49:43;;;;;;;19.40;13.40;;;;;;;18.05;69.86;100606.27;105119;1257;74256;-69
2023/09/25 00:52:09;;;;;;;22.60;13.90;;;;;;;18.02;69.91;100606.20;105295;1254;60492;-69
2023/09/25 00:54:36;;;;;;;18.00;13.90;;;;;;;18.00;69.66;100603.91;105579;1254;72863;-70
2023/09/25 00:57:09;;;;;;;22.60;13.70;;;;;;;17.95;69.46;100604.58;105339;1254;62713;-69
2023/09/25 00:59:38;;;;;;;18.10;13.00;;;;;;;17.90;69.63;100610.74;105140;1254;292534;-69
2023/09/25 01:04:39;;;;;;;17.80;13.50;;;;;;;17.84;69.87;100605.50;102358;1293;602746;-71
2023/09/25 01:07:06;;;;;;;19.30;13.40;;;;;;;17.82;69.40;100610.48;104766;1267;60015;-70
2023/09/25 01:09:34;;;;;;;17.50;13.20;;;;;;;17.77;69.38;100612.52;104345;1273;60020;-71
2023/09/25 01:12:02;;;;;;;23.40;12.50;;;;;;;17.85;69.21;100613.64;104424;1269;70729;-71
2023/09/25 01:14:30;;;;;;;18.80;13.40;;;;;;;17.93;68.90;100609.11;104199;1269;70133;-70
2023/09/25 01:16:57;;;;;;;22.20;13.50;;;;;;;17.90;69.09;100607.67;104482;1267;72666;-68
2023/09/25 01:19:25;;;;;;;20.60;12.30;;;;;;;17.86;68.96;100606.33;104436;1267;187614;-70
2023/09/25 01:21:52;;;;;;;18.30;13.20;;;;;;;17.83;69.13;100610.48;104593;1267;60009;-70
2023/09/25 01:24:20;;;;;;;20.30;14.40;;;;;;;17.76;69.39;100609.23;104695;1265;71980;-69
2023/09/25 01:26:47;;;;;;;20.40;12.70;;;;;;;17.68;69.55;100605.20;104811;1267;69246;-70
2023/09/25 01:29:17;;;;;;;21.20;14.00;;;;;;;17.63;69.64;100609.12;105192;1260;72993;-68
2023/09/25 01:31:45;;;;;;;17.20;13.70;;;;;;;17.55;69.73;100612.56;105311;1262;59685;-70
2023/09/25 01:34:13;;;;;;;19.20;13.90;;;;;;;17.49;69.98;100614.00;105141;1260;60387;-68
2023/09/25 01:36:40;;;;;;;21.40;13.50;;;;;;;17.45;70.20;100609.70;105238;1262;73097;-70
2023/09/25 01:39:08;;;;;;;16.20;12.30;;;;;;;17.53;70.15;100615.08;105249;1257;69983;-69
2023/09/25 01:41:35;;;;;;;21.40;13.20;;;;;;;17.58;69.99;100619.89;105267;1263;71243;-70
2023/09/25 01:44:04;;;;;;;17.20;13.00;;;;;;;17.55;69.89;100619.02;105276;1260;59983;-69
2023/09/25 01:46:31;;;;;;;20.80;13.70;;;;;;;17.49;69.92;100620.81;105314;1260;59740;-70
2023/09/25 01:48:59;;;;;;;19.70;13.60;;;;;;;17.47;70.07;100622.38;105216;1260;72899;-70
2023/09/25 01:51:27;;;;;;;17.00;13.30;;;;;;;17.44;70.17;100619.63;105274;1257;70173;-68
2023/09/25 01:53:54;;;;;;;18.90;14.20;;;;;;;17.40;70.10;100617.48;105211;1262;73185;-68
2023/09/25 01:56:21;;;;;;;20.20;15.40;;;;;;;17.39;70.22;100621.96;105207;1260;60069;-68
2023/09/25 01:58:49;;;;;;;21.20;13.70;;;;;;;17.38;70.45;100622.94;105151;1258;60023;-69
2023/09/25 02:01:16;;;;;;;18.70;14.30;;;;;;;17.39;70.72;100622.70;105141;1263;71845;-67
2023/09/25 02:03:45;;;;;;;17.70;12.90;;;;;;;17.40;70.80;100626.10;105150;1258;70123;-68
2023/09/25 02:06:13;;;;;;;17.60;11.90;;;;;;;17.48;70.75;100622.39;105162;1262;72481;-68
2023/09/25 02:08:40;;;;;;;21.50;12.90;;;;;;;17.59;70.83;100621.61;105064;1260;59954;-69
2023/09/25 02:11:08;;;;;;;15.70;13.20;;;;;;;17.63;70.99;100621.81;104978;1262;59579;-69
2023/09/25 02:13:36;;;;;;;21.30;14.20;;;;;;;17.66;71.11;100625.95;105004;1257;71789;-67
2023/09/25 02:16:03;;;;;;;15.70;13.60;;;;;;;17.69;70.97;100631.45;105187;1262;68825;-70
2023/09/25 02:18:31;;;;;;;20.60;13.20;;;;;;;17.70;70.83;100633.83;105051;1260;71172;-68
2023/09/25 02:20:58;;;;;;;18.00;13.40;;;;;;;17.70;70.79;100633.30;105051;1263;59775;-68
2023/09/25 02:23:26;;;;;;;20.10;13.60;;;;;;;17.68;70.92;100635.45;105031;1257;60012;-66
2023/09/25 02:25:53;;;;;;;19.60;14.00;;;;;;;17.66;70.78;100638.13;105391;1259;72115;-67
2023/09/25 02:28:20;;;;;;;17.90;13.10;;;;;;;17.63;71.04;100635.61;105328;1257;70155;-67
2023/09/25 02:30:48;;;;;;;16.50;12.80;;;;;;;17.66;71.15;100635.19;105404;1257;71376;-67
2023/09/25 02:33:15;;;;;;;15.50;12.70;;;;;;;17.72;71.12;100631.95;105136;1257;60170;-66
2023/09/25 02:35:43;;;;;;;21.20;12.20;;;;;;;17.74;71.29;100630.80;105746;1259;59487;-68
2023/09/25 02:38:11;;;;;;;18.30;13.30;;;;;;;17.74;71.46;100628.62;105186;1258;73070;-68
2023/09/25 02:40:38;;;;;;;19.40;14.30;;;;;;;17.75;71.73;100629.85;105336;1254;69017;-67
2023/09/25 02:43:06;;;;;;;19.50;13.40;;;;;;;17.76;72.14;100627.17;105582;1257;73398;-68
2023/09/25 02:45:33;;;;;;;15.50;12.40;;;;;;;17.76;72.82;100631.31;105390;1254;60143;-70
2023/09/25 02:48:03;;;;;;;21.80;11.80;;;;;;;17.75;73.36;100634.78;105379;1259;60005;-70
2023/09/25 02:50:30;;;;;;;15.30;12.00;;;;;;;17.80;73.44;100632.02;105280;1255;73268;-68
2023/09/25 02:52:58;;;;;;;21.90;13.40;;;;;;;17.86;73.43;100632.91;105316;1257;70081;-69
2023/09/25 02:55:26;;;;;;;17.80;13.50;;;;;;;17.85;73.49;100630.38;105378;1257;72670;-69
2023/09/25 02:57:54;;;;;;;17.00;13.10;;;;;;;17.80;73.65;100635.45;105360;1259;60066;-69
2023/09/25 03:00:21;;;;;;;15.50;12.90;;;;;;;17.76;73.80;100637.89;105310;1254;60074;-70
2023/09/25 03:02:49;;;;;;;20.10;13.30;;;;;;;17.73;74.09;100639.15;105527;1254;73043;-70
2023/09/25 03:05:16;;;;;;;15.40;13.30;;;;;;;17.70;74.17;100641.76;106067;1254;70135;-68
2023/09/25 03:07:44;;;;;;;17.20;12.60;;;;;;;17.64;74.32;100637.77;105793;1257;72712;-70
2023/09/25 03:10:11;;;;;;;17.00;12.00;;;;;;;17.65;74.53;100639.90;105388;1260;60444;-70
2023/09/25 03:12:39;;;;;;;18.70;12.40;;;;;;;17.65;74.51;100632.29;105414;1259;59629;-70
2023/09/25 03:15:07;;;;;;;18.90;12.30;;;;;;;17.63;74.71;100634.67;105471;1257;72802;-71
2023/09/25 03:17:35;;;;;;;22.30;13.00;;;;;;;17.57;74.79;100635.98;105406;1254;70344;-70
2023/09/25 03:20:14;;;;;;;15.70;12.10;;;;;;;17.52;74.86;100634.64;105283;1259;72801;-71
2023/09/25 03:22:43;;;;;;;19.20;12.20;;;;;;;17.44;75.10;100631.28;105327;1255;60106;-72
2023/09/25 03:25:12;;;;;;;121.30;104.10;;;;;;;17.37;75.26;100633.50;105581;1259;59547;-70
2023/09/25 03:27:40;;;;;;;34.00;24.80;;;;;;;17.32;75.38;100633.09;105647;1257;72196;-70
2023/09/25 03:30:08;;;;;;;17.10;12.50;;;;;;;17.38;75.37;100635.16;105586;1259;69237;-70
2023/09/25 03:32:37;;;;;;;21.60;12.80;;;;;;;17.45;75.50;100637.14;105381;1257;72623;-71
2023/09/25 03:35:05;;;;;;;18.80;13.30;;;;;;;17.45;75.54;100637.11;105359;1257;60054;-68
2023/09/25 03:37:32;;;;;;;21.20;13.40;;;;;;;17.44;75.61;100635.95;105569;1254;59813;-68
2023/09/25 03:40:00;;;;;;;22.30;13.80;;;;;;;17.41;75.74;100638.98;105502;1254;73101;-66
2023/09/25 03:42:27;;;;;;;18.90;13.00;;;;;;;17.39;75.96;100642.38;105438;1259;69038;-68
2023/09/25 03:44:55;;;;;;;19.80;13.30;;;;;;;17.34;75.97;100644.22;105405;1257;72518;-68
2023/09/25 03:47:22;;;;;;;23.60;12.20;;;;;;;17.33;76.19;100642.80;105556;1257;60452;-68
2023/09/25 03:49:50;;;;;;;20.40;12.60;;;;;;;17.35;76.35;100648.37;105667;1259;59561;-68
2023/09/25 03:52:17;;;;;;;15.70;11.60;;;;;;;17.31;76.45;100650.31;105426;1259;73025;-65
2023/09/25 03:54:45;;;;;;;22.50;12.40;;;;;;;17.22;76.77;100652.11;105416;1254;69360;-67
2023/09/25 03:57:13;;;;;;;20.80;13.50;;;;;;;17.13;77.05;100656.01;105699;1254;72751;-69
2023/09/25 03:59:40;;;;;;;17.00;14.10;;;;;;;17.06;77.47;100657.98;105488;1254;60175;-68
2023/09/25 04:02:08;;;;;;;19.80;13.20;;;;;;;17.05;77.63;100663.52;105338;1254;59695;-66
2023/09/25 04:04:35;;;;;;;19.70;12.80;;;;;;;17.15;77.54;100659.87;105482;1254;71734;-67
2023/09/25 04:07:03;;;;;;;24.80;13.60;;;;;;;17.23;77.34;100667.20;105483;1254;70148;-68
2023/09/25 04:09:31;;;;;;;23.80;14.30;;;;;;;17.24;77.35;100670.21;105384;1258;71746;-69
2023/09/25 04:11:59;;;;;;;24.50;15.30;;;;;;;17.22;77.48;100678.12;105455;1254;60222;-69
2023/09/25 04:14:28;;;;;;;17.60;13.80;;;;;;;17.19;77.59;100683.83;105414;1259;59634;-67
2023/09/25 04:16:55;;;;;;;19.50;14.90;;;;;;;17.14;77.73;100685.97;105279;1254;71789;-68
2023/09/25 04:19:23;;;;;;;28.70;13.70;;;;;;;17.12;77.90;100688.50;105380;1254;69313;-69
2023/09/25 04:21:52;;;;;;;14.80;12.40;;;;;;;17.22;77.84;100692.63;105319;1257;70685;-69
2023/09/25 04:24:20;;;;;;;19.30;12.40;;;;;;;17.30;77.75;100698.96;105263;1254;59608;-71
2023/09/25 04:26:48;;;;;;;17.60;12.90;;;;;;;17.31;77.85;100704.34;105547;1255;59958;-67
2023/09/25 04:29:17;;;;;;;18.50;13.40;;;;;;;17.29;77.84;100703.74;105595;1254;73035;-69
2023/09/25 04:31:46;;;;;;;19.20;12.90;;;;;;;17.25;77.88;100710.14;105539;1259;69394;-69
2023/09/25 04:34:14;;;;;;;20.00;14.00;;;;;;;17.26;78.08;100712.34;105334;1254;72794;-68
2023/09/25 04:36:41;;;;;;;24.70;14.10;;;;;;;17.30;78.02;100715.45;105409;1257;61705;-69
2023/09/25 04:39:11;;;;;;;18.20;12.40;;;;;;;17.38;77.78;100718.73;105344;1258;59548;-69
2023/09/25 04:41:39;;;;;;;27.60;14.40;;;;;;;17.47;77.58;100718.91;105340;1254;73106;-67
2023/09/25 04:44:06;;;;;;;20.20;16.10;;;;;;;17.48;77.49;100718.02;105308;1259;69147;-70
2023/09/25 04:46:34;;;;;;;24.00;16.80;;;;;;;17.49;77.34;100720.42;105617;1254;72937;-68
2023/09/25 04:49:01;;;;;;;22.00;18.00;;;;;;;17.49;77.34;100725.29;105422;1254;59812;-68
2023/09/25 04:51:30;;;;;;;27.10;17.70;;;;;;;17.48;77.22;100727.01;105399;1258;59650;-70
2023/09/25 04:53:58;;;;;;;19.10;15.90;;;;;;;17.50;77.33;100723.23;105685;1254;73366;-71
2023/09/25 04:56:27;;;;;;;21.40;15.20;;;;;;;17.62;77.00;100726.34;105457;1254;72634;-71
2023/09/25 04:58:55;;;;;;;25.20;16.30;;;;;;;17.76;76.63;100726.28;105379;1254;71438;-71
2023/09/25 05:01:22;;;;;;;21.30;15.80;;;;;;;17.83;76.58;100730.54;105335;1258;62036;-74
2023/09/25 05:03:50;;;;;;;24.70;16.80;;;;;;;17.91;76.47;100725.84;105740;1259;61243;-72
2023/09/25 05:06:19;;;;;;;19.10;15.90;;;;;;;18.00;76.31;100731.00;105813;1254;72549;-71
2023/09/25 05:08:47;;;;;;;28.50;17.20;;;;;;;18.08;75.99;100731.39;105277;1253;70454;-72
2023/09/25 05:11:15;;;;;;;20.90;15.90;;;;;;;18.17;75.22;100732.61;106114;1257;72727;-73
2023/09/25 05:13:42;;;;;;;30.60;16.40;;;;;;;18.26;74.57;100730.63;105750;1259;60451;-73
2023/09/25 05:16:10;;;;;;;23.30;15.80;;;;;;;18.41;73.77;100736.98;105621;1254;60647;-75
2023/09/25 05:18:38;;;;;;;23.30;16.30;;;;;;;18.56;73.21;100742.60;105921;1257;73876;-72
2023/09/25 05:21:06;;;;;;;26.10;15.50;;;;;;;18.63;72.54;100743.23;105419;1254;70294;-72
2023/09/25 05:23:33;;;;;;;25.80;16.10;;;;;;;18.71;71.93;100746.25;105836;1257;71450;-72
2023/09/25 05:26:00;;;;;;;27.00;16.30;;;;;;;18.77;71.65;100745.14;105857;1254;60607;-72
2023/09/25 05:28:28;;;;;;;24.20;16.40;;;;;;;18.84;71.38;100751.18;105389;1260;60357;-74
2023/09/25 05:30:56;;;;;;;32.30;17.40;;;;;;;18.92;70.90;100749.48;105427;1254;73740;-72
2023/09/25 05:33:24;;;;;;;21.30;14.90;;;;;;;18.99;70.58;100751.80;105580;1256;69947;-72
2023/09/25 05:35:51;;;;;;;22.10;15.50;;;;;;;19.04;69.67;100749.15;105485;1254;72446;-73
2023/09/25 05:38:19;;;;;;;17.80;14.80;;;;;;;19.09;69.16;100748.42;105623;1257;60483;-73
2023/09/25 05:40:46;;;;;;;24.30;15.50;;;;;;;19.14;68.87;100752.17;105507;1253;60552;-72
2023/09/25 05:43:14;;;;;;;27.10;17.00;;;;;;;19.19;68.70;100749.25;105444;1256;74117;-72
2023/09/25 05:45:42;;;;;;;20.50;15.10;;;;;;;19.23;68.55;100753.70;105249;1260;68511;-72
2023/09/25 05:48:10;;;;;;;22.00;14.60;;;;;;;19.29;68.24;100751.94;105300;1254;72503;-72
2023/09/25 05:50:39;;;;;;;22.10;16.20;;;;;;;19.33;68.22;100757.55;105329;1257;60539;-75
2023/09/25 05:53:08;;;;;;;21.90;16.20;;;;;;;19.38;68.17;100756.04;105796;1259;60444;-75
2023/09/25 05:55:35;;;;;;;22.10;16.00;;;;;;;19.43;68.22;100757.84;105679;1254;73683;-78
2023/09/25 05:58:04;;;;;;;25.10;15.60;;;;;;;19.59;68.32;100758.86;105858;1254;68972;-79
2023/09/25 06:00:34;;;;;;;25.30;16.00;;;;;;;19.74;68.47;100762.83;105943;1256;72441;-80
2023/09/25 06:03:02;;;;;;;21.70;16.30;;;;;;;19.83;68.98;100765.63;105920;1254;60502;-81
2023/09/25 06:05:30;;;;;;;26.80;17.00;;;;;;;19.90;68.99;100766.81;106168;1254;60364;-76
2023/09/25 06:07:57;;;;;;;20.40;17.00;;;;;;;19.99;69.15;100770.67;105872;1260;74206;-79
2023/09/25 06:10:25;;;;;;;26.50;19.30;;;;;;;20.06;69.15;100776.09;105985;1253;70110;-79
2023/09/25 06:12:52;;;;;;;25.40;16.90;;;;;;;20.15;69.14;100775.27;106271;1259;71384;-80
2023/09/25 06:15:23;;;;;;;22.70;17.20;;;;;;;20.22;69.06;100779.63;106165;1259;61294;-79
2023/09/25 06:17:50;;;;;;;22.70;16.50;;;;;;;20.29;69.30;100780.71;106042;1257;60481;-80
2023/09/25 06:20:20;;;;;;;18.50;15.30;;;;;;;20.35;69.22;100782.59;106099;1254;72275;-79
2023/09/25 06:22:48;;;;;;;23.00;15.30;;;;;;;20.42;69.06;100782.05;106351;1254;70120;-79
2023/09/25 06:25:19;;;;;;;18.00;14.10;;;;;;;20.46;69.04;100784.73;105992;1254;73030;-81
2023/09/25 06:27:46;;;;;;;20.80;14.40;;;;;;;20.57;69.04;100783.17;106302;1254;61681;-82
2023/09/25 06:30:16;;;;;;;19.30;14.80;;;;;;;20.70;68.89;100783.84;106929;1255;60869;-81
2023/09/25 06:32:44;;;;;;;19.60;13.50;;;;;;;20.78;68.75;100785.09;108220;1253;73899;-81
2023/09/25 06:35:12;;;;;;;17.90;14.00;;;;;;;20.87;68.73;100787.69;108007;1253;68967;-80
2023/09/25 06:37:40;;;;;;;20.00;13.40;;;;;;;20.97;68.47;100784.42;106427;1260;71374;-80
2023/09/25 06:40:12;;;;;;;20.10;14.30;;;;;;;21.09;68.13;100783.77;106263;1257;60475;-82
2023/09/25 06:42:41;;;;;;;18.90;13.80;;;;;;;21.16;67.80;100789.58;106395;1254;60351;-82
2023/09/25 06:45:09;;;;;;;18.30;13.10;;;;;;;21.20;67.74;100791.92;106150;1254;72481;-80
2023/09/25 06:47:37;;;;;;;17.20;13.40;;;;;;;21.23;67.94;100790.51;105779;1259;68728;-80
2023/09/25 06:50:05;;;;;;;17.40;14.10;;;;;;;21.28;68.05;100793.79;106069;1259;72637;-82
2023/09/25 06:52:33;;;;;;;15.60;13.70;;;;;;;21.33;68.22;100794.84;106167;1254;60318;-81
2023/09/25 06:55:01;;;;;;;19.00;13.80;;;;;;;21.36;68.40;100795.82;106157;1255;60405;-80
2023/09/25 06:57:28;;;;;;;17.80;13.10;;;;;;;21.41;68.52;100799.30;106091;1256;75757;-81
2023/09/25 06:59:56;;;;;;;20.20;14.10;;;;;;;21.48;68.72;100806.61;106080;1254;68980;-82
2023/09/25 07:02:25;;;;;;;29.80;13.30;;;;;;;21.63;68.55;100808.46;106097;1258;71474;-80
2023/09/25 07:04:52;;;;;;;21.20;13.60;;;;;;;21.77;68.48;100811.39;106078;1258;60629;-81
2023/09/25 07:07:20;;;;;;;19.40;13.50;;;;;;;21.86;68.54;100814.26;106072;1254;60475;-81
2023/09/25 07:09:48;;;;;;;16.50;14.10;;;;;;;21.94;68.51;100816.70;106132;1254;72575;-81
2023/09/25 07:12:17;;;;;;;15.40;13.70;;;;;;;22.05;68.51;100816.89;106575;1256;69550;-81
2023/09/25 07:14:55;;;;;;;17.50;13.20;;;;;;;22.14;68.28;100817.46;105975;1258;73744;-81
2023/09/25 07:17:24;;;;;;;19.30;12.40;;;;;;;22.23;68.00;100820.33;105906;1255;60519;-80
2023/09/25 07:19:52;;;;;;;15.30;11.70;;;;;;;22.31;67.52;100823.09;105838;1255;59742;-81
2023/09/25 07:22:22;;;;;;;14.60;11.10;;;;;;;22.39;66.76;100821.58;106494;1257;73878;-81
2023/09/25 07:24:50;;;;;;;16.90;11.20;;;;;;;22.48;66.12;100824.15;106061;1260;70259;-81
2023/09/25 07:27:18;;;;;;;16.60;11.20;;;;;;;22.54;65.55;100823.73;106014;1255;72471;-81
2023/09/25 07:29:46;;;;;;;15.20;11.20;;;;;;;22.64;64.83;100827.24;106013;1254;61256;-81
2023/09/25 07:32:13;;;;;;;14.80;10.80;;;;;;;22.73;64.11;100827.23;106226;1257;60530;-81
2023/09/25 07:34:43;;;;;;;15.20;11.40;;;;;;;22.79;63.89;100830.64;106744;1254;73801;-80
2023/09/25 07:37:17;;;;;;;15.70;10.70;;;;;;;22.86;63.43;100833.46;108486;1257;68739;-80
2023/09/25 07:39:46;;;;;;;16.80;10.60;;;;;;;22.94;62.98;100832.95;108150;1257;72904;-80
2023/09/25 07:42:14;;;;;;;12.80;10.20;;;;;;;23.03;62.53;100832.86;107680;1254;60549;-81
2023/09/25 07:44:42;;;;;;;17.30;10.30;;;;;;;23.13;61.95;100836.39;107176;1260;60597;-79
2023/09/25 07:47:12;;;;;;;20.80;9.70;;;;;;;23.25;61.05;100835.27;107304;1260;73792;-80
2023/09/25 07:49:44;;;;;;;14.80;8.80;;;;;;;23.33;59.87;100838.30;108283;1256;69367;-76
2023/09/25 07:52:19;;;;;;;15.70;9.70;;;;;;;23.40;58.51;100840.80;106636;1256;74114;-76
2023/09/25 07:54:48;;;;;;;13.30;8.60;;;;;;;23.45;58.18;100840.96;105917;1260;60514;-78
2023/09/25 07:57:31;;;;;;;16.10;9.60;;;;;;;23.54;57.86;100847.02;105986;1260;60843;-79
2023/09/25 07:59:58;;;;;;;13.20;9.40;;;;;;;23.66;57.44;100842.41;105672;1261;74183;-77
2023/09/25 08:02:26;;;;;;;12.90;10.10;;;;;;;23.78;57.24;100843.34;105946;1255;68511;-76
2023/09/25 08:04:54;;;;;;;13.20;9.50;;;;;;;23.90;56.67;100843.10;105721;1260;72850;-77
2023/09/25 08:07:22;;;;;;;11.20;9.50;;;;;;;24.03;56.34;100846.35;105884;1254;60812;-77
2023/09/25 08:09:49;;;;;;;15.60;9.90;;;;;;;24.15;56.21;100852.11;106123;1257;60959;-77
2023/09/25 08:12:17;;;;;;;15.00;9.80;;;;;;;24.29;56.05;100855.03;105844;1256;74888;-77
2023/09/25 08:14:45;;;;;;;19.00;10.30;;;;;;;24.43;55.73;100857.64;105903;1260;70279;-77
2023/09/25 08:17:12;;;;;;;16.70;11.20;;;;;;;24.53;55.45;100856.09;105978;1257;72665;-77
2023/09/25 08:19:40;;;;;;;14.60;10.20;;;;;;;24.65;55.59;100857.04;105917;1256;60466;-76
2023/09/25 08:22:08;;;;;;;14.70;10.90;;;;;;;24.80;55.68;100859.25;105997;1257;60433;-78
2023/09/25 08:24:35;;;;;;;14.60;10.50;;;;;;;24.98;55.48;100854.77;105840;1268;76351;-76
2023/09/25 08:27:04;;;;;;;13.10;10.60;;;;;;;25.14;55.14;100853.34;105884;1255;70173;-79
2023/09/25 08:29:32;;;;;;;16.10;10.50;;;;;;;25.28;54.69;100853.98;105895;1254;73154;-77
2023/09/25 08:31:59;;;;;;;12.60;9.80;;;;;;;25.41;54.17;100857.16;105847;1260;60425;-76
2023/09/25 08:34:27;;;;;;;14.00;10.10;;;;;;;25.57;53.74;100859.90;105722;1254;60944;-75
2023/09/25 08:36:55;;;;;;;10.50;8.40;;;;;;;25.74;52.89;100863.33;105937;1254;73800;-76
2023/09/25 08:39:22;;;;;;;15.70;10.70;;;;;;;25.86;52.21;100863.73;105949;1254;72961;-76
2023/09/25 08:41:50;;;;;;;12.60;8.30;;;;;;;26.01;51.86;100863.27;106065;1257;72389;-76
2023/09/25 08:44:17;;;;;;;10.20;9.10;;;;;;;26.20;51.54;100864.66;106342;1254;60541;-75
2023/09/25 08:46:46;;;;;;;16.00;8.90;;;;;;;26.39;50.93;100861.64;106113;1263;60585;-76
2023/09/25 08:49:13;;;;;;;11.70;9.00;;;;;;;26.60;50.54;100862.00;106006;1260;73363;-75
2023/09/25 08:51:41;;;;;;;16.50;9.60;;;;;;;26.85;49.82;100866.65;105947;1259;69169;-75
2023/09/25 08:54:09;;;;;;;12.30;8.50;;;;;;;27.09;49.16;100868.48;105899;1259;73717;-76
2023/09/25 08:56:37;;;;;;;12.40;8.40;;;;;;;27.32;48.60;100869.64;105983;1255;60790;-77
2023/09/25 08:59:05;;;;;;;13.90;8.90;;;;;;;27.59;48.08;100861.33;105930;1260;61426;-77
2023/09/25 09:01:33;;;;;;;16.00;8.00;;;;;;;28.05;47.67;100860.20;105939;1257;76089;-76
2023/09/25 09:04:01;;;;;;;13.00;8.10;;;;;;;28.60;46.50;100859.38;105852;1260;68992;-78
2023/09/25 09:06:29;;;;;;;10.40;7.80;;;;;;;29.14;45.09;100857.69;105791;1254;71212;-78
2023/09/25 09:08:57;;;;;;;10.10;7.50;;;;;;;29.68;44.38;100856.41;105968;1255;60550;-77
2023/09/25 09:11:25;;;;;;;15.20;8.20;;;;;;;30.31;43.49;100856.08;105703;1260;60501;-77
2023/09/25 09:13:52;;;;;;;15.00;8.70;;;;;;;30.94;42.30;100854.09;105934;1258;75273;-77
2023/09/25 09:16:20;;;;;;;13.70;9.00;;;;;;;31.48;41.59;100853.55;105986;1258;68713;-75
2023/09/25 09:18:48;;;;;;;18.50;8.50;;;;;;;31.98;40.93;100850.14;105877;1257;72135;-76
2023/09/25 09:21:26;;;;;;;14.30;7.80;;;;;;;32.51;39.99;100852.25;105841;1262;60540;-77
2023/09/25 09:23:56;;;;;;;13.60;7.80;;;;;;;32.99;38.87;100850.86;105947;1257;60418;-76
2023/09/25 09:26:25;;;;;;;15.00;8.20;;;;;;;33.30;38.16;100849.65;106048;1254;75802;-77
2023/09/25 09:28:56;;;;;;;11.20;7.80;;;;;;;33.62;38.02;100846.34;105600;1253;71776;-75
2023/09/25 09:31:23;;;;;;;14.70;8.80;;;;;;;34.02;37.33;100849.58;105829;1254;72665;-76
2023/09/25 09:33:54;;;;;;;15.20;8.40;;;;;;;34.31;36.62;100845.69;105974;1257;60425;-75
2023/09/25 09:36:23;;;;;;;14.90;8.90;;;;;;;34.46;36.25;100848.20;105844;1255;60421;-73
2023/09/25 09:38:51;;;;;;;12.10;8.10;;;;;;;34.61;36.13;100848.98;105971;1257;76196;-76
2023/09/25 09:41:19;;;;;;;11.20;7.50;;;;;;;34.87;35.86;100847.10;105775;1258;60480;-74
2023/09/25 09:43:47;;;;;;;12.60;8.10;;;;;;;35.21;35.13;100848.77;105715;1254;65752;-77
2023/09/25 09:46:15;;;;;;;9.60;7.60;;;;;;;35.61;34.60;100848.11;105799;1257;60571;-74
2023/09/25 09:48:44;;;;;;;12.50;8.20;;;;;;;35.99;34.39;100847.10;105750;1260;60541;-74
2023/09/25 09:51:12;;;;;;;11.30;7.40;;;;;;;36.44;33.93;100847.48;105755;1254;73969;-76
2023/09/25 09:53:40;;;;;;;14.10;8.20;;;;;;;36.85;33.37;100838.86;105883;1254;72090;-76
2023/09/25 09:56:08;;;;;;;13.30;7.90;;;;;;;37.35;32.95;100839.70;105896;1259;63849;-74
2023/09/25 09:58:36;;;;;;;12.60;7.30;;;;;;;37.85;32.26;100841.70;105855;1261;60507;-74
2023/09/25 10:01:04;;;;;;;11.10;7.70;;;;;;;38.19;31.91;100841.77;105743;1260;60649;-75
2023/09/25 10:03:32;;;;;;;9.80;7.10;;;;;;;38.50;31.29;100838.37;105832;1259;67433;-75
2023/09/25 10:06:00;;;;;;;11.60;7.10;;;;;;;38.72;30.82;100837.73;105855;1254;61833;-76
2023/09/25 10:08:28;;;;;;;10.00;6.90;;;;;;;38.77;30.99;100835.05;105890;1255;63831;-76
2023/09/25 10:11:13;;;;;;;12.90;7.80;;;;;;;38.90;30.60;100833.23;105941;1259;60501;-75
2023/09/25 10:13:41;;;;;;;11.60;7.90;;;;;;;38.97;30.48;100829.78;105899;1259;60442;-75
2023/09/25 10:16:10;;;;;;;10.00;7.30;;;;;;;39.17;30.46;100821.95;105806;1254;64928;-75
2023/09/25 10:18:38;;;;;;;12.10;6.90;;;;;;;39.47;30.23;100816.15;105841;1260;70280;-82
2023/09/25 10:21:14;;;;;;;9.00;7.20;;;;;;;39.79;30.10;100811.98;106253;1259;65839;-82
2023/09/25 10:23:45;;;;;;;11.00;7.80;;;;;;;40.02;29.98;100817.10;106347;1260;60508;-83
2023/09/25 10:26:24;;;;;;;11.50;7.80;;;;;;;40.15;29.81;100811.15;106095;1255;60447;-83
2023/09/25 10:29:10;;;;;;;11.30;7.30;;;;;;;40.38;29.59;100810.47;106142;1260;63635;-83
2023/09/25 10:31:38;;;;;;;12.00;7.90;;;;;;;40.58;29.48;100802.58;105805;1257;71789;-82
2023/09/25 10:34:07;;;;;;;12.70;8.00;;;;;;;40.68;29.25;100801.06;106053;1257;63696;-81
2023/09/25 10:36:37;;;;;;;17.90;8.00;;;;;;;40.80;29.08;100805.38;106044;1259;60438;-77
2023/09/25 10:39:08;;;;;;;10.30;7.80;;;;;;;40.91;28.88;100801.27;105901;1254;61095;-77
2023/09/25 10:41:37;;;;;;;8.50;7.30;;;;;;;40.81;28.81;100803.67;105875;1260;75697;-78
2023/09/25 10:44:05;;;;;;;14.10;7.80;;;;;;;40.81;28.85;100798.09;105929;1254;61363;-76
2023/09/25 10:46:32;;;;;;;13.20;7.80;;;;;;;41.04;28.73;100796.61;105939;1258;64844;-75
2023/09/25 10:49:00;;;;;;;10.80;7.40;;;;;;;41.34;28.75;100800.64;106192;1254;60549;-77
2023/09/25 10:51:28;;;;;;;10.20;7.50;;;;;;;41.59;28.56;100801.75;106002;1257;60409;-76
2023/09/25 10:53:55;;;;;;;10.00;7.70;;;;;;;41.79;28.30;100797.00;106101;1260;65094;-76
2023/09/25 10:56:22;;;;;;;11.50;8.30;;;;;;;41.99;27.95;100796.10;106189;1257;62803;-77
2023/09/25 10:58:52;;;;;;;11.40;7.80;;;;;;;42.00;28.04;100789.05;106327;1254;66008;-78
2023/09/25 11:01:24;;;;;;;12.00;8.00;;;;;;;42.18;27.92;100789.39;106279;1254;60473;-75
2023/09/25 11:03:52;;;;;;;14.10;7.50;;;;;;;42.54;27.70;100785.15;106264;1258;60424;-76
2023/09/25 11:06:21;;;;;;;9.30;7.00;;;;;;;42.92;27.00;100782.84;106449;1254;74906;-77
2023/09/25 11:09:04;;;;;;;10.20;7.90;;;;;;;43.16;27.05;100779.86;106098;1257;61423;-77
2023/09/25 11:11:31;;;;;;;11.10;7.70;;;;;;;43.45;26.76;100776.60;105830;1254;63766;-77